Terminal Aerodrome Forecast
Issued by NWS

Home | Current Version | Previous Version | Text Only | Print | Product List | Glossary On
Versions: 1 2 3 4 5 6 7 8 9 10 11 12
000
FTUS46 KPDT 030533
TAFRDM
TAF
KRDM 030533Z 0306/0406 32004KT P6SM OVC080
     FM031800 34005KT P6SM SCT080
     FM032200 33008G15KT P6SM SCT050
     FM040500 33006KT P6SM BKN050=

USA.gov is the U.S. government's official web portal to all federal, state and local government web resources and services.